createdAt,value
2023-05-19T00:02:25.955Z,10.40
2023-05-19T00:04:56.566Z,12.05
2023-05-19T00:07:32.566Z,14.93
2023-05-19T00:10:01.743Z,11.35
2023-05-19T00:12:30.583Z,14.93
2023-05-19T00:14:59.479Z,14.70
2023-05-19T00:17:28.147Z,13.23
2023-05-19T00:19:57.869Z,14.95
2023-05-19T00:22:26.308Z,15.32
2023-05-19T00:24:54.540Z,9.10
2023-05-19T00:27:22.982Z,11.93
2023-05-19T00:29:51.295Z,12.50
2023-05-19T00:32:19.673Z,12.95
2023-05-19T00:34:48.700Z,8.50
2023-05-19T00:37:20.377Z,13.63
2023-05-19T00:39:48.603Z,12.73
2023-05-19T00:42:17.340Z,11.60
2023-05-19T00:44:45.600Z,13.55
2023-05-19T00:47:13.923Z,9.17
2023-05-19T00:49:42.179Z,14.33
2023-05-19T00:52:10.578Z,10.63
2023-05-19T00:54:41.226Z,13.77
2023-05-19T00:57:10.082Z,14.13
2023-05-19T00:59:38.515Z,11.00
2023-05-19T01:02:07.857Z,13.77
2023-05-19T01:04:39.561Z,9.37
2023-05-19T01:07:08.489Z,13.10
2023-05-19T01:09:37.290Z,13.00
2023-05-19T01:12:08.479Z,14.93
2023-05-19T01:14:37.053Z,9.67
2023-05-19T01:17:15.075Z,14.73
2023-05-19T01:19:57.637Z,12.43
2023-05-19T01:23:18.805Z,11.85
2023-05-19T01:26:21.822Z,10.93
2023-05-19T01:29:33.939Z,11.30
2023-05-19T01:32:07.747Z,12.47
2023-05-19T01:34:44.634Z,9.50
2023-05-19T01:37:15.760Z,12.03
2023-05-19T01:39:46.250Z,12.07
2023-05-19T01:42:16.667Z,9.73
2023-05-19T01:44:46.257Z,13.73
2023-05-19T01:47:16.774Z,13.87
2023-05-19T01:49:45.175Z,8.33
2023-05-19T01:52:13.461Z,15.40
2023-05-19T01:54:41.837Z,10.18
2023-05-19T01:57:22.176Z,10.33
2023-05-19T02:00:05.637Z,15.55
2023-05-19T02:02:56.664Z,11.25
2023-05-19T02:05:35.915Z,15.40
2023-05-19T02:08:14.256Z,7.90
2023-05-19T02:10:51.324Z,12.43
2023-05-19T02:13:25.829Z,12.50
2023-05-19T02:15:57.879Z,11.30
2023-05-19T02:18:29.931Z,13.77
2023-05-19T02:20:58.275Z,10.77
2023-05-19T02:23:26.538Z,9.67
2023-05-19T02:25:55.133Z,13.07
2023-05-19T02:28:23.359Z,12.77
2023-05-19T02:30:51.627Z,12.37
2023-05-19T02:33:20.051Z,11.43
2023-05-19T02:35:49.662Z,9.80
2023-05-19T02:38:18.099Z,11.63
2023-05-19T02:40:46.398Z,11.47
2023-05-19T02:43:14.712Z,11.50
2023-05-19T02:45:43.000Z,17.33
2023-05-19T02:48:11.366Z,13.17
2023-05-19T02:50:39.632Z,12.37
2023-05-19T02:53:09.323Z,11.90
2023-05-19T02:55:37.585Z,14.97
2023-05-19T02:58:05.953Z,8.67
2023-05-19T03:00:34.410Z,13.00
2023-05-19T03:03:04.540Z,12.00
2023-05-19T03:05:32.914Z,14.03
2023-05-19T03:08:01.262Z,10.30
2023-05-19T03:10:31.778Z,12.37
2023-05-19T03:13:00.204Z,12.63
2023-05-19T03:15:28.476Z,11.33
2023-05-19T03:17:56.823Z,12.03
2023-05-19T03:20:25.450Z,12.03
2023-05-19T03:22:53.772Z,12.10
2023-05-19T03:25:22.375Z,9.13
2023-05-19T03:27:51.961Z,10.67
2023-05-19T03:30:20.628Z,9.17
2023-05-19T03:33:14.908Z,10.73
2023-05-19T03:35:44.306Z,13.23
2023-05-19T03:38:13.007Z,11.37
2023-05-19T03:40:45.325Z,10.57
2023-05-19T03:43:16.112Z,11.43
2023-05-19T03:45:53.500Z,11.77
2023-05-19T03:48:41.237Z,13.60
2023-05-19T03:51:28.523Z,13.93
2023-05-19T03:53:59.551Z,17.93
2023-05-19T03:56:27.928Z,13.03
2023-05-19T03:58:57.552Z,10.97
2023-05-19T04:01:25.855Z,15.57
2023-05-19T04:03:54.121Z,11.20
2023-05-19T04:06:23.342Z,12.20
2023-05-19T04:08:51.678Z,18.63
2023-05-19T04:11:21.458Z,14.33
2023-05-19T04:13:49.755Z,11.97
2023-05-19T04:16:19.525Z,13.30
2023-05-19T04:18:49.237Z,13.27
2023-05-19T04:21:17.619Z,14.83
2023-05-19T04:23:45.900Z,12.17
2023-05-19T04:26:14.716Z,12.27
2023-05-19T04:28:44.676Z,14.97
2023-05-19T04:31:14.222Z,14.17
2023-05-19T04:33:44.269Z,11.73
2023-05-19T04:36:13.762Z,13.00
2023-05-19T04:38:45.881Z,13.87
2023-05-19T04:41:16.450Z,13.73
2023-05-19T04:43:44.965Z,10.63
2023-05-19T04:46:15.701Z,10.35
2023-05-19T04:48:47.591Z,13.13
2023-05-19T04:51:15.856Z,14.88
2023-05-19T04:53:44.608Z,11.90
2023-05-19T04:56:15.812Z,11.32
2023-05-19T04:58:45.496Z,12.02
2023-05-19T05:01:15.653Z,16.92
2023-05-19T05:03:45.158Z,10.85
2023-05-19T05:06:15.216Z,14.50
2023-05-19T05:08:43.924Z,13.90
2023-05-19T05:11:13.342Z,13.02
2023-05-19T05:13:42.344Z,10.50
2023-05-19T05:16:13.368Z,13.10
2023-05-19T05:18:44.701Z,11.63
2023-05-19T05:21:15.839Z,15.27
2023-05-19T05:23:45.094Z,14.63
2023-05-19T05:26:19.909Z,14.57
2023-05-19T05:28:50.878Z,13.40
2023-05-19T05:31:19.141Z,13.20
2023-05-19T05:33:48.176Z,13.18
2023-05-19T05:36:18.984Z,14.10
2023-05-19T05:38:47.255Z,13.65
2023-05-19T05:41:16.473Z,11.63
2023-05-19T05:43:45.006Z,8.80
2023-05-19T05:46:14.135Z,10.75
2023-05-19T05:48:43.443Z,10.90
2023-05-19T05:51:13.512Z,12.48
2023-05-19T05:53:47.112Z,11.15
2023-05-19T05:56:17.568Z,16.25
2023-05-19T05:58:51.988Z,13.13
2023-05-19T06:01:20.973Z,12.63
2023-05-19T06:03:49.373Z,19.80
2023-05-19T06:06:22.131Z,11.60
2023-05-19T06:08:51.802Z,10.50
2023-05-19T06:11:20.132Z,15.45
2023-05-19T06:13:49.127Z,11.48
2023-05-19T06:16:31.114Z,14.35
2023-05-19T06:18:59.852Z,10.70
2023-05-19T06:21:28.120Z,17.77
2023-05-19T06:23:57.771Z,11.00
2023-05-19T06:26:26.471Z,13.10
2023-05-19T06:28:55.361Z,12.82
2023-05-19T06:31:23.771Z,13.70
2023-05-19T06:33:55.116Z,10.15
2023-05-19T06:36:23.369Z,10.73
2023-05-19T06:38:53.501Z,14.38
2023-05-19T06:41:23.441Z,11.45
2023-05-19T06:43:53.441Z,10.23
2023-05-19T06:46:23.681Z,12.07
2023-05-19T06:48:52.777Z,9.75
2023-05-19T06:51:24.238Z,9.65
2023-05-19T06:53:56.992Z,10.10
2023-05-19T06:56:27.001Z,15.77
2023-05-19T06:58:55.405Z,14.10
2023-05-19T07:01:30.110Z,11.77
2023-05-19T07:03:58.700Z,12.40
2023-05-19T07:06:27.238Z,7.20
2023-05-19T07:08:55.581Z,8.73
2023-05-19T07:11:26.276Z,11.20
2023-05-19T07:13:54.765Z,12.07
2023-05-19T07:16:28.501Z,9.00
2023-05-19T07:18:57.315Z,12.57
2023-05-19T07:21:25.725Z,10.48
2023-05-19T07:23:54.171Z,12.40
2023-05-19T07:26:23.590Z,9.60
2023-05-19T07:28:53.818Z,8.90
2023-05-19T07:31:22.234Z,7.78
2023-05-19T07:33:52.987Z,10.32
2023-05-19T07:36:22.675Z,14.13
2023-05-19T07:38:51.049Z,11.65
2023-05-19T07:41:19.330Z,8.63
2023-05-19T07:43:47.657Z,9.20
2023-05-19T07:46:17.503Z,10.90
2023-05-19T07:48:46.025Z,8.02
2023-05-19T07:51:14.522Z,9.30
2023-05-19T07:53:42.905Z,11.18
2023-05-19T07:56:11.390Z,11.38
2023-05-19T07:58:39.709Z,7.03
2023-05-19T08:01:08.087Z,7.25
2023-05-19T08:03:37.886Z,10.65
2023-05-19T08:06:06.704Z,10.07
2023-05-19T08:08:35.063Z,10.80
2023-05-19T08:11:05.017Z,7.57
2023-05-19T08:13:34.665Z,7.85
2023-05-19T08:16:03.062Z,10.57
2023-05-19T08:18:31.480Z,6.53
2023-05-19T08:21:01.411Z,11.93
2023-05-19T08:23:29.776Z,14.30
2023-05-19T08:25:58.011Z,8.43
2023-05-19T08:28:26.493Z,11.13
2023-05-19T08:30:54.837Z,11.43
2023-05-19T08:33:23.170Z,7.90
2023-05-19T08:35:51.653Z,8.90
2023-05-19T08:38:21.349Z,13.35
2023-05-19T08:40:49.902Z,10.95
2023-05-19T08:43:18.293Z,6.20
2023-05-19T08:45:48.160Z,7.18
2023-05-19T08:48:20.280Z,11.07
2023-05-19T08:50:58.288Z,14.05
2023-05-19T08:53:34.856Z,6.40
2023-05-19T08:56:11.198Z,7.40
2023-05-19T08:58:43.646Z,8.75
2023-05-19T09:01:16.781Z,10.75
2023-05-19T09:03:47.085Z,9.05
2023-05-19T09:06:15.388Z,13.15
2023-05-19T09:08:47.026Z,7.15
2023-05-19T09:11:15.638Z,8.40
2023-05-19T09:13:43.937Z,11.57
2023-05-19T09:16:13.256Z,5.82
2023-05-19T09:18:42.478Z,7.90
2023-05-19T09:21:11.853Z,12.02
2023-05-19T09:23:40.188Z,9.45
2023-05-19T09:26:10.558Z,7.75
2023-05-19T09:28:39.037Z,12.30
2023-05-19T09:31:10.472Z,13.20
2023-05-19T09:33:44.320Z,7.45
2023-05-19T09:36:14.843Z,10.55
2023-05-19T09:38:43.084Z,9.30
2023-05-19T09:41:16.110Z,7.35
2023-05-19T09:43:44.351Z,7.78
2023-05-19T09:46:14.469Z,6.38
2023-05-19T09:48:43.780Z,10.85
2023-05-19T09:51:13.144Z,8.00
2023-05-19T09:53:42.047Z,8.18
2023-05-19T09:56:12.348Z,12.10
2023-05-19T09:58:43.714Z,6.43
2023-05-19T10:01:12.576Z,15.30
2023-05-19T10:03:42.543Z,15.43
2023-05-19T10:06:11.741Z,15.95
2023-05-19T10:08:43.390Z,13.00
2023-05-19T10:11:14.233Z,7.07
2023-05-19T10:13:43.102Z,7.32
2023-05-19T10:16:12.117Z,11.15
2023-05-19T10:18:42.421Z,8.88
2023-05-19T10:21:11.994Z,9.30
2023-05-19T10:23:40.278Z,5.82
2023-05-19T10:26:10.083Z,9.70
2023-05-19T10:28:44.147Z,7.28
2023-05-19T10:31:20.284Z,9.40
2023-05-19T10:34:13.783Z,8.43
2023-05-19T10:36:49.563Z,4.93
2023-05-19T10:39:27.731Z,7.68
2023-05-19T10:42:09.368Z,7.30
2023-05-19T10:44:58.605Z,9.32
2023-05-19T10:47:27.689Z,10.13
2023-05-19T10:49:56.691Z,7.20
2023-05-19T10:52:27.134Z,7.78
2023-05-19T10:54:56.115Z,9.30
2023-05-19T10:57:31.696Z,7.05
2023-05-19T11:00:11.240Z,10.23
2023-05-19T11:02:43.018Z,6.65
2023-05-19T11:05:14.595Z,5.00
2023-05-19T11:07:44.759Z,10.13
2023-05-19T11:10:14.019Z,7.68
2023-05-19T11:12:44.119Z,13.60
2023-05-19T11:15:16.846Z,13.55
2023-05-19T11:17:50.178Z,6.18
2023-05-19T11:20:24.727Z,13.60
2023-05-19T11:23:07.146Z,7.35
2023-05-19T11:25:47.767Z,7.68
2023-05-19T11:28:19.438Z,8.68
2023-05-19T11:30:51.642Z,9.60
2023-05-19T11:33:21.747Z,9.20
2023-05-19T11:35:52.214Z,12.18
2023-05-19T11:38:20.919Z,11.95
2023-05-19T11:40:53.554Z,7.68
2023-05-19T11:43:24.819Z,4.05
2023-05-19T11:45:55.700Z,5.85
2023-05-19T11:48:25.891Z,9.70
2023-05-19T11:50:54.756Z,7.78
2023-05-19T11:53:24.063Z,7.38
2023-05-19T11:55:52.549Z,6.88
2023-05-19T11:58:27.896Z,8.82
2023-05-19T12:00:57.538Z,8.43
2023-05-19T12:03:28.215Z,12.70
2023-05-19T12:05:57.739Z,17.05
2023-05-19T12:08:27.212Z,7.15
2023-05-19T12:10:56.135Z,9.80
2023-05-19T12:13:24.624Z,5.63
2023-05-19T12:15:53.562Z,4.28
2023-05-19T12:18:23.302Z,6.30
2023-05-19T12:20:51.848Z,6.40
2023-05-19T12:23:21.267Z,12.38
2023-05-19T12:25:50.564Z,8.23
2023-05-19T12:28:20.417Z,6.55
2023-05-19T12:30:52.191Z,7.72
2023-05-19T12:33:22.924Z,7.80
2023-05-19T12:35:51.933Z,6.93
2023-05-19T12:38:21.566Z,8.00
2023-05-19T12:40:51.597Z,8.57
2023-05-19T12:43:24.000Z,15.90
2023-05-19T12:45:53.372Z,9.10
2023-05-19T12:48:24.632Z,10.80
2023-05-19T12:50:55.733Z,9.02
2023-05-19T12:53:27.568Z,11.48
2023-05-19T12:55:56.885Z,7.97
2023-05-19T12:58:25.208Z,8.18
2023-05-19T13:01:00.765Z,5.40
2023-05-19T13:03:30.516Z,7.60
2023-05-19T13:05:59.671Z,9.65
2023-05-19T13:08:28.303Z,8.35
2023-05-19T13:10:56.815Z,5.82
2023-05-19T13:13:25.159Z,13.23
2023-05-19T13:15:53.660Z,9.77
2023-05-19T13:18:22.462Z,14.35
2023-05-19T13:20:53.003Z,8.63
2023-05-19T13:23:21.475Z,6.43
2023-05-19T13:25:50.604Z,10.00
2023-05-19T13:28:19.058Z,8.23
2023-05-19T13:30:48.182Z,5.30
2023-05-19T13:33:16.560Z,9.93
2023-05-19T13:35:44.893Z,6.13
2023-05-19T13:38:14.592Z,8.40
2023-05-19T13:40:42.873Z,9.13
2023-05-19T13:43:11.141Z,5.63
2023-05-19T13:45:41.085Z,13.13
2023-05-19T13:48:10.548Z,9.45
2023-05-19T13:50:38.909Z,8.30
2023-05-19T13:53:07.229Z,10.52
2023-05-19T13:55:36.888Z,12.02
2023-05-19T13:58:05.155Z,9.10
2023-05-19T14:00:35.546Z,5.57
2023-05-19T14:03:04.878Z,7.10
2023-05-19T14:05:33.389Z,9.93
2023-05-19T14:08:03.535Z,8.02
2023-05-19T14:10:32.066Z,5.43
2023-05-19T14:15:37.560Z,6.82
2023-05-19T14:18:07.032Z,6.13
2023-05-19T14:20:35.917Z,6.07
2023-05-19T14:23:04.603Z,7.05
2023-05-19T14:25:32.902Z,7.30
2023-05-19T14:28:02.800Z,10.98
2023-05-19T14:30:31.168Z,6.65
2023-05-19T14:32:59.507Z,12.00
2023-05-19T14:35:27.962Z,6.07
2023-05-19T14:37:56.218Z,8.10
2023-05-19T14:40:24.465Z,5.30
2023-05-19T14:42:52.752Z,5.82
2023-05-19T14:45:24.813Z,7.03
2023-05-19T14:47:53.117Z,6.97
2023-05-19T14:50:21.605Z,7.00
2023-05-19T14:52:49.957Z,7.18
2023-05-19T14:55:18.354Z,8.15
2023-05-19T14:57:46.972Z,4.78
2023-05-19T15:00:15.940Z,4.43
2023-05-19T15:02:46.078Z,5.28
2023-05-19T15:05:14.524Z,10.73
2023-05-19T15:07:42.784Z,4.45
2023-05-19T15:10:11.655Z,11.20
2023-05-19T15:12:39.941Z,5.00
2023-05-19T15:15:09.989Z,9.10
2023-05-19T15:17:38.257Z,11.68
2023-05-19T15:20:10.594Z,9.70
2023-05-19T15:22:38.866Z,8.57
2023-05-19T15:25:08.958Z,6.65
2023-05-19T15:27:37.442Z,8.63
2023-05-19T15:30:07.226Z,6.60
2023-05-19T15:32:35.581Z,5.45
2023-05-19T15:35:03.984Z,5.43
2023-05-19T15:37:33.664Z,7.35
2023-05-19T15:40:01.930Z,7.60
2023-05-19T15:42:30.243Z,5.93
2023-05-19T15:44:58.587Z,7.68
2023-05-19T15:47:26.881Z,11.75
2023-05-19T15:49:55.363Z,5.57
2023-05-19T15:52:23.681Z,4.53
2023-05-19T15:54:55.096Z,6.90
2023-05-19T15:57:23.552Z,7.65
2023-05-19T15:59:51.829Z,5.75
2023-05-19T16:02:20.347Z,7.80
2023-05-19T16:04:48.631Z,5.28
2023-05-19T16:07:18.437Z,5.22
2023-05-19T16:09:46.725Z,5.65
2023-05-19T16:12:16.553Z,5.22
2023-05-19T16:14:44.971Z,5.68
2023-05-19T16:17:13.817Z,7.20
2023-05-19T16:19:42.165Z,9.80
2023-05-19T16:22:10.496Z,7.75
2023-05-19T16:24:38.768Z,5.68
2023-05-19T16:27:07.154Z,9.30
2023-05-19T16:29:36.780Z,6.25
2023-05-19T16:32:05.918Z,8.20
2023-05-19T16:34:34.296Z,4.13
2023-05-19T16:37:02.536Z,4.82
2023-05-19T16:39:30.868Z,4.15
2023-05-19T16:41:59.284Z,4.50
2023-05-19T16:44:27.508Z,9.57
2023-05-19T16:46:57.220Z,5.07
2023-05-19T16:49:25.542Z,7.60
2023-05-19T16:51:55.732Z,10.68
2023-05-19T16:54:24.084Z,2.85
2023-05-19T16:56:52.897Z,6.40
2023-05-19T16:59:21.206Z,4.80
2023-05-19T17:01:49.926Z,3.85
2023-05-19T17:04:19.742Z,5.10
2023-05-19T17:06:48.088Z,3.20
2023-05-19T17:09:16.527Z,3.70
2023-05-19T17:11:45.575Z,8.18
2023-05-19T17:14:14.077Z,5.85
2023-05-19T17:16:42.344Z,4.05
2023-05-19T17:19:10.922Z,9.10
2023-05-19T17:21:40.916Z,7.68
2023-05-19T17:24:09.247Z,7.05
2023-05-19T17:26:37.545Z,3.90
2023-05-19T17:29:06.074Z,5.30
2023-05-19T17:31:34.426Z,8.73
2023-05-19T17:34:02.890Z,17.27
2023-05-19T17:36:31.298Z,7.40
2023-05-19T17:39:01.082Z,4.63
2023-05-19T17:41:29.449Z,3.30
2023-05-19T17:43:57.771Z,4.38
2023-05-19T17:46:26.103Z,5.03
2023-05-19T17:48:54.397Z,3.50
2023-05-19T17:51:23.767Z,5.57
2023-05-19T17:53:53.157Z,5.57
2023-05-19T17:56:25.799Z,5.78
2023-05-19T17:58:54.838Z,6.32
2023-05-19T18:01:25.750Z,8.38
2023-05-19T18:03:55.008Z,4.35
2023-05-19T18:06:26.900Z,4.38
2023-05-19T18:08:59.866Z,9.02
2023-05-19T18:11:30.562Z,4.53
2023-05-19T18:13:58.970Z,3.83
2023-05-19T18:16:27.529Z,4.18
2023-05-19T18:18:55.929Z,3.30
2023-05-19T18:21:24.973Z,4.82
2023-05-19T18:23:53.406Z,4.47
2023-05-19T18:26:22.349Z,2.80
2023-05-19T18:28:51.932Z,6.07
2023-05-19T18:31:20.447Z,4.95
2023-05-19T18:33:49.151Z,4.97
2023-05-19T18:36:17.567Z,3.33
2023-05-19T18:38:47.314Z,3.53
2023-05-19T18:41:15.712Z,3.00
2023-05-19T18:43:44.026Z,3.75
2023-05-19T18:46:13.951Z,6.15
2023-05-19T18:48:42.404Z,5.10
2023-05-19T18:51:11.028Z,5.03
2023-05-19T18:53:39.456Z,4.43
2023-05-19T18:56:09.852Z,4.93
2023-05-19T18:58:38.187Z,5.07
2023-05-19T19:01:06.756Z,5.82
2023-05-19T19:03:36.390Z,6.03
2023-05-19T19:06:05.056Z,4.03
2023-05-19T19:08:33.374Z,5.53
2023-05-19T19:11:01.768Z,5.28
2023-05-19T19:13:30.034Z,6.47
2023-05-19T19:15:58.301Z,2.90
2023-05-19T19:18:27.062Z,6.68
2023-05-19T19:20:57.355Z,3.10
2023-05-19T19:23:26.018Z,4.65
2023-05-19T19:25:56.422Z,4.78
2023-05-19T19:28:24.758Z,4.00
2023-05-19T19:30:53.274Z,5.70
2023-05-19T19:33:21.661Z,4.82
2023-05-19T19:35:50.052Z,2.85
2023-05-19T19:38:19.700Z,4.57
2023-05-19T19:40:48.216Z,6.88
2023-05-19T19:43:16.438Z,3.88
2023-05-19T19:45:44.743Z,6.32
2023-05-19T19:48:13.057Z,3.58
2023-05-19T19:50:41.320Z,5.00
2023-05-19T19:53:09.776Z,5.43
2023-05-19T19:55:39.441Z,4.05
2023-05-19T19:58:07.735Z,5.25
2023-05-19T20:00:36.251Z,4.53
2023-05-19T20:03:05.998Z,3.65
2023-05-19T20:05:34.575Z,2.90
2023-05-19T20:08:03.062Z,7.45
2023-05-19T20:10:31.491Z,3.50
2023-05-19T20:13:01.275Z,3.03
2023-05-19T20:15:29.533Z,3.40
2023-05-19T20:17:57.889Z,3.35
2023-05-19T20:20:26.252Z,3.50
2023-05-19T20:22:54.535Z,7.88
2023-05-19T20:25:22.888Z,3.53
2023-05-19T20:27:51.169Z,5.80
2023-05-19T20:30:21.031Z,2.72
2023-05-19T20:32:49.488Z,3.03
2023-05-19T20:35:18.008Z,5.35
2023-05-19T20:37:47.877Z,3.08
2023-05-19T20:40:16.337Z,6.88
2023-05-19T20:42:44.644Z,3.40
2023-05-19T20:45:13.316Z,4.97
2023-05-19T20:47:42.947Z,6.28
2023-05-19T20:50:11.676Z,6.65
2023-05-19T20:52:39.991Z,3.90
2023-05-19T20:55:09.106Z,3.03
2023-05-19T20:57:37.369Z,3.42
2023-05-19T21:00:07.202Z,5.45
2023-05-19T21:02:35.879Z,3.13
2023-05-19T21:05:06.576Z,3.75
2023-05-19T21:07:35.038Z,4.60
2023-05-19T21:10:03.425Z,3.72
2023-05-19T21:12:34.065Z,4.78
2023-05-19T21:15:03.576Z,3.70
2023-05-19T21:17:32.153Z,8.02
2023-05-19T21:20:01.093Z,4.18
2023-05-19T21:22:30.969Z,4.05
2023-05-19T21:24:59.527Z,2.67
2023-05-19T21:27:27.970Z,3.92
2023-05-19T21:29:56.508Z,3.53
2023-05-19T21:32:28.207Z,3.60
2023-05-19T21:34:56.553Z,4.30
2023-05-19T21:37:24.916Z,3.70
2023-05-19T21:39:54.482Z,3.17
2023-05-19T21:42:22.745Z,7.47
2023-05-19T21:44:51.027Z,3.42
2023-05-19T21:47:19.280Z,3.33
2023-05-19T21:49:47.501Z,6.95
2023-05-19T21:52:15.996Z,3.70
2023-05-19T21:54:44.244Z,3.30
2023-05-19T21:57:13.868Z,2.75
2023-05-19T21:59:42.113Z,5.15
2023-05-19T22:02:10.528Z,5.82
2023-05-19T22:04:39.007Z,3.60
2023-05-19T22:07:07.454Z,3.45
2023-05-19T22:09:35.867Z,3.50
2023-05-19T22:12:04.135Z,3.05
2023-05-19T22:14:33.744Z,2.58
2023-05-19T22:17:01.990Z,6.45
2023-05-19T22:19:30.311Z,5.78
2023-05-19T22:22:06.018Z,3.38
2023-05-19T22:24:42.148Z,7.32
2023-05-19T22:27:10.611Z,6.32
2023-05-19T22:29:40.323Z,3.67
2023-05-19T22:32:12.066Z,2.58
2023-05-19T22:34:41.043Z,4.40
2023-05-19T22:37:09.379Z,2.35
2023-05-19T22:39:39.293Z,2.72
2023-05-19T22:42:07.633Z,2.58
2023-05-19T22:44:36.027Z,2.45
2023-05-19T22:47:06.177Z,4.78
2023-05-19T22:49:34.427Z,2.55
2023-05-19T22:52:02.763Z,2.65
2023-05-19T22:54:31.468Z,3.97
2023-05-19T22:56:59.740Z,5.00
2023-05-19T22:59:28.178Z,5.18
2023-05-19T23:01:56.569Z,2.47
2023-05-19T23:04:26.319Z,3.75
2023-05-19T23:06:54.726Z,4.13
2023-05-19T23:09:22.996Z,3.10
2023-05-19T23:11:51.412Z,3.05
2023-05-19T23:14:21.667Z,2.28
2023-05-19T23:16:50.356Z,2.95
2023-05-19T23:19:20.268Z,4.35
2023-05-19T23:21:50.209Z,4.15
2023-05-19T23:24:18.486Z,2.22
2023-05-19T23:26:46.736Z,4.53
2023-05-19T23:29:15.728Z,3.22
2023-05-19T23:31:44.961Z,2.63
2023-05-19T23:34:13.280Z,3.53
2023-05-19T23:36:41.562Z,2.10
2023-05-19T23:39:11.281Z,2.30
2023-05-19T23:41:39.591Z,3.03
2023-05-19T23:44:09.845Z,3.03
2023-05-19T23:46:38.222Z,3.75
2023-05-19T23:49:06.535Z,4.45
2023-05-19T23:51:34.801Z,2.00
2023-05-19T23:54:03.126Z,4.53
2023-05-19T23:56:32.750Z,3.75
2023-05-19T23:59:01.041Z,3.40
